sensor_id;sensor_type;location;lat;lon;timestamp;P1;durP1;ratioP1;P2;durP2;ratioP2
6300;SDS011;3183;51.010;6.898;2023-03-31T00:01:25;4.20;;;1.20;;
6300;SDS011;3183;51.010;6.898;2023-03-31T00:03:53;4.83;;;1.07;;
6300;SDS011;3183;51.010;6.898;2023-03-31T00:06:28;5.77;;;1.33;;
6300;SDS011;3183;51.010;6.898;2023-03-31T00:08:56;4.07;;;1.63;;
6300;SDS011;3183;51.010;6.898;2023-03-31T00:11:27;3.43;;;1.27;;
6300;SDS011;3183;51.010;6.898;2023-03-31T00:13:54;4.90;;;1.47;;
6300;SDS011;3183;51.010;6.898;2023-03-31T00:16:22;8.80;;;1.57;;
6300;SDS011;3183;51.010;6.898;2023-03-31T00:18:49;6.90;;;2.03;;
6300;SDS011;3183;51.010;6.898;2023-03-31T00:21:17;6.30;;;1.37;;
6300;SDS011;3183;51.010;6.898;2023-03-31T00:23:51;8.73;;;1.50;;
6300;SDS011;3183;51.010;6.898;2023-03-31T00:26:18;8.30;;;1.60;;
6300;SDS011;3183;51.010;6.898;2023-03-31T00:28:46;2.57;;;1.30;;
6300;SDS011;3183;51.010;6.898;2023-03-31T00:31:14;8.27;;;1.97;;
6300;SDS011;3183;51.010;6.898;2023-03-31T00:33:41;3.57;;;1.60;;
6300;SDS011;3183;51.010;6.898;2023-03-31T00:36:08;8.20;;;1.47;;
6300;SDS011;3183;51.010;6.898;2023-03-31T00:38:35;3.60;;;1.27;;
6300;SDS011;3183;51.010;6.898;2023-03-31T00:41:03;11.38;;;1.90;;
6300;SDS011;3183;51.010;6.898;2023-03-31T00:43:32;6.10;;;1.65;;
6300;SDS011;3183;51.010;6.898;2023-03-31T00:46:01;4.57;;;1.43;;
6300;SDS011;3183;51.010;6.898;2023-03-31T00:48:29;4.73;;;1.40;;
6300;SDS011;3183;51.010;6.898;2023-03-31T00:50:57;4.60;;;1.80;;
6300;SDS011;3183;51.010;6.898;2023-03-31T00:53:26;6.40;;;1.40;;
6300;SDS011;3183;51.010;6.898;2023-03-31T00:55:56;5.40;;;1.37;;
6300;SDS011;3183;51.010;6.898;2023-03-31T00:58:26;4.10;;;1.50;;
6300;SDS011;3183;51.010;6.898;2023-03-31T01:00:54;3.33;;;1.33;;
6300;SDS011;3183;51.010;6.898;2023-03-31T01:03:23;9.40;;;1.57;;
6300;SDS011;3183;51.010;6.898;2023-03-31T01:05:50;3.73;;;1.60;;
6300;SDS011;3183;51.010;6.898;2023-03-31T01:08:19;4.33;;;1.83;;
6300;SDS011;3183;51.010;6.898;2023-03-31T01:10:49;3.57;;;1.13;;
6300;SDS011;3183;51.010;6.898;2023-03-31T01:13:17;15.77;;;1.83;;
6300;SDS011;3183;51.010;6.898;2023-03-31T01:15:46;8.27;;;1.50;;
6300;SDS011;3183;51.010;6.898;2023-03-31T01:18:13;4.30;;;1.50;;
6300;SDS011;3183;51.010;6.898;2023-03-31T01:20:49;5.27;;;1.30;;
6300;SDS011;3183;51.010;6.898;2023-03-31T01:23:26;6.13;;;1.40;;
6300;SDS011;3183;51.010;6.898;2023-03-31T01:26:17;7.33;;;1.87;;
6300;SDS011;3183;51.010;6.898;2023-03-31T01:28:51;6.90;;;1.47;;
6300;SDS011;3183;51.010;6.898;2023-03-31T01:39:54;6.83;;;2.10;;
6300;SDS011;3183;51.010;6.898;2023-03-31T01:42:30;16.97;;;1.70;;
6300;SDS011;3183;51.010;6.898;2023-03-31T01:45:02;3.53;;;1.50;;
6300;SDS011;3183;51.010;6.898;2023-03-31T01:47:34;7.23;;;1.77;;
6300;SDS011;3183;51.010;6.898;2023-03-31T01:50:05;6.83;;;1.47;;
6300;SDS011;3183;51.010;6.898;2023-03-31T01:52:38;13.73;;;1.77;;
6300;SDS011;3183;51.010;6.898;2023-03-31T01:55:10;8.73;;;1.80;;
6300;SDS011;3183;51.010;6.898;2023-03-31T01:57:38;6.90;;;1.50;;
6300;SDS011;3183;51.010;6.898;2023-03-31T02:00:08;7.90;;;2.30;;
6300;SDS011;3183;51.010;6.898;2023-03-31T02:02:37;15.17;;;2.30;;
6300;SDS011;3183;51.010;6.898;2023-03-31T02:05:06;2.93;;;1.17;;
6300;SDS011;3183;51.010;6.898;2023-03-31T02:07:35;12.63;;;2.20;;
6300;SDS011;3183;51.010;6.898;2023-03-31T02:10:04;6.70;;;1.57;;
6300;SDS011;3183;51.010;6.898;2023-03-31T02:12:34;5.30;;;2.50;;
6300;SDS011;3183;51.010;6.898;2023-03-31T02:15:03;6.13;;;2.27;;
6300;SDS011;3183;51.010;6.898;2023-03-31T02:17:31;14.03;;;1.87;;
6300;SDS011;3183;51.010;6.898;2023-03-31T02:20:01;10.43;;;1.83;;
6300;SDS011;3183;51.010;6.898;2023-03-31T02:22:31;8.70;;;1.90;;
6300;SDS011;3183;51.010;6.898;2023-03-31T02:25:00;16.23;;;3.20;;
6300;SDS011;3183;51.010;6.898;2023-03-31T02:27:29;12.30;;;2.50;;
6300;SDS011;3183;51.010;6.898;2023-03-31T02:29:59;10.00;;;2.20;;
6300;SDS011;3183;51.010;6.898;2023-03-31T02:32:29;21.00;;;2.80;;
6300;SDS011;3183;51.010;6.898;2023-03-31T02:34:57;6.93;;;1.80;;
6300;SDS011;3183;51.010;6.898;2023-03-31T02:37:25;13.67;;;2.20;;
6300;SDS011;3183;51.010;6.898;2023-03-31T02:39:53;17.60;;;2.70;;
6300;SDS011;3183;51.010;6.898;2023-03-31T02:42:21;10.60;;;1.80;;
6300;SDS011;3183;51.010;6.898;2023-03-31T02:44:48;8.83;;;2.10;;
6300;SDS011;3183;51.010;6.898;2023-03-31T02:47:17;11.47;;;2.30;;
6300;SDS011;3183;51.010;6.898;2023-03-31T02:49:47;19.30;;;2.77;;
6300;SDS011;3183;51.010;6.898;2023-03-31T02:52:21;19.15;;;2.40;;
6300;SDS011;3183;51.010;6.898;2023-03-31T02:57:38;13.83;;;3.70;;
6300;SDS011;3183;51.010;6.898;2023-03-31T03:00:11;12.47;;;2.73;;
6300;SDS011;3183;51.010;6.898;2023-03-31T03:02:46;12.23;;;2.80;;
6300;SDS011;3183;51.010;6.898;2023-03-31T03:05:20;10.60;;;1.90;;
6300;SDS011;3183;51.010;6.898;2023-03-31T03:07:52;8.80;;;2.13;;
6300;SDS011;3183;51.010;6.898;2023-03-31T03:10:24;8.63;;;2.47;;
6300;SDS011;3183;51.010;6.898;2023-03-31T03:12:55;18.10;;;2.50;;
6300;SDS011;3183;51.010;6.898;2023-03-31T03:15:24;16.37;;;2.07;;
6300;SDS011;3183;51.010;6.898;2023-03-31T03:17:53;11.80;;;2.90;;
6300;SDS011;3183;51.010;6.898;2023-03-31T03:20:21;4.83;;;2.40;;
6300;SDS011;3183;51.010;6.898;2023-03-31T03:22:48;10.17;;;2.50;;
6300;SDS011;3183;51.010;6.898;2023-03-31T03:25:16;10.17;;;3.13;;
6300;SDS011;3183;51.010;6.898;2023-03-31T03:27:44;15.17;;;3.20;;
6300;SDS011;3183;51.010;6.898;2023-03-31T03:30:12;16.37;;;4.33;;
6300;SDS011;3183;51.010;6.898;2023-03-31T03:32:39;18.93;;;3.13;;
6300;SDS011;3183;51.010;6.898;2023-03-31T03:35:08;13.70;;;3.10;;
6300;SDS011;3183;51.010;6.898;2023-03-31T03:37:36;14.63;;;2.20;;
6300;SDS011;3183;51.010;6.898;2023-03-31T03:40:03;8.53;;;2.70;;
6300;SDS011;3183;51.010;6.898;2023-03-31T03:42:31;12.73;;;5.20;;
6300;SDS011;3183;51.010;6.898;2023-03-31T03:44:58;8.50;;;2.40;;
6300;SDS011;3183;51.010;6.898;2023-03-31T03:47:26;9.33;;;2.00;;
6300;SDS011;3183;51.010;6.898;2023-03-31T03:49:53;11.97;;;2.60;;
6300;SDS011;3183;51.010;6.898;2023-03-31T03:52:21;3.90;;;2.10;;
6300;SDS011;3183;51.010;6.898;2023-03-31T03:54:49;9.60;;;2.93;;
6300;SDS011;3183;51.010;6.898;2023-03-31T03:57:16;10.73;;;2.63;;
6300;SDS011;3183;51.010;6.898;2023-03-31T03:59:43;8.93;;;2.40;;
6300;SDS011;3183;51.010;6.898;2023-03-31T04:02:10;3.43;;;1.67;;
6300;SDS011;3183;51.010;6.898;2023-03-31T04:04:37;7.10;;;2.07;;
6300;SDS011;3183;51.010;6.898;2023-03-31T04:07:08;4.23;;;1.77;;
6300;SDS011;3183;51.010;6.898;2023-03-31T04:09:36;5.20;;;1.50;;
6300;SDS011;3183;51.010;6.898;2023-03-31T04:12:03;4.30;;;1.33;;
6300;SDS011;3183;51.010;6.898;2023-03-31T04:14:30;9.37;;;1.73;;
6300;SDS011;3183;51.010;6.898;2023-03-31T04:16:58;5.03;;;1.70;;
6300;SDS011;3183;51.010;6.898;2023-03-31T04:19:26;10.30;;;2.13;;
6300;SDS011;3183;51.010;6.898;2023-03-31T04:21:54;3.13;;;1.23;;
6300;SDS011;3183;51.010;6.898;2023-03-31T04:24:26;5.13;;;1.83;;
6300;SDS011;3183;51.010;6.898;2023-03-31T04:26:58;16.27;;;1.70;;
6300;SDS011;3183;51.010;6.898;2023-03-31T04:29:26;8.30;;;2.40;;
6300;SDS011;3183;51.010;6.898;2023-03-31T04:31:57;14.33;;;1.70;;
6300;SDS011;3183;51.010;6.898;2023-03-31T04:34:25;7.40;;;1.90;;
6300;SDS011;3183;51.010;6.898;2023-03-31T04:36:59;5.90;;;2.10;;
6300;SDS011;3183;51.010;6.898;2023-03-31T04:39:26;5.70;;;1.60;;
6300;SDS011;3183;51.010;6.898;2023-03-31T04:41:54;4.93;;;1.23;;
6300;SDS011;3183;51.010;6.898;2023-03-31T04:44:23;9.37;;;1.50;;
6300;SDS011;3183;51.010;6.898;2023-03-31T04:46:51;1.77;;;1.10;;
6300;SDS011;3183;51.010;6.898;2023-03-31T04:49:18;5.20;;;1.50;;
6300;SDS011;3183;51.010;6.898;2023-03-31T04:51:45;7.47;;;2.03;;
6300;SDS011;3183;51.010;6.898;2023-03-31T04:54:14;6.13;;;1.77;;
6300;SDS011;3183;51.010;6.898;2023-03-31T04:56:41;4.60;;;1.40;;
6300;SDS011;3183;51.010;6.898;2023-03-31T04:59:08;7.20;;;1.63;;
6300;SDS011;3183;51.010;6.898;2023-03-31T05:01:37;6.67;;;1.70;;
6300;SDS011;3183;51.010;6.898;2023-03-31T05:04:08;4.40;;;1.10;;
6300;SDS011;3183;51.010;6.898;2023-03-31T05:06:36;6.37;;;1.40;;
6300;SDS011;3183;51.010;6.898;2023-03-31T05:09:03;7.70;;;1.30;;
6300;SDS011;3183;51.010;6.898;2023-03-31T05:11:30;8.87;;;1.20;;
6300;SDS011;3183;51.010;6.898;2023-03-31T05:13:57;2.50;;;1.00;;
6300;SDS011;3183;51.010;6.898;2023-03-31T05:16:24;5.87;;;1.60;;
6300;SDS011;3183;51.010;6.898;2023-03-31T05:18:53;2.25;;;1.20;;
6300;SDS011;3183;51.010;6.898;2023-03-31T05:21:20;6.30;;;1.53;;
6300;SDS011;3183;51.010;6.898;2023-03-31T05:23:47;5.50;;;1.10;;
6300;SDS011;3183;51.010;6.898;2023-03-31T05:26:15;7.40;;;1.53;;
6300;SDS011;3183;51.010;6.898;2023-03-31T05:28:42;6.73;;;1.80;;
6300;SDS011;3183;51.010;6.898;2023-03-31T05:31:09;5.07;;;1.63;;
6300;SDS011;3183;51.010;6.898;2023-03-31T05:33:37;5.50;;;1.50;;
6300;SDS011;3183;51.010;6.898;2023-03-31T05:36:08;4.70;;;1.50;;
6300;SDS011;3183;51.010;6.898;2023-03-31T05:38:35;8.90;;;1.73;;
6300;SDS011;3183;51.010;6.898;2023-03-31T05:41:02;4.70;;;1.30;;
6300;SDS011;3183;51.010;6.898;2023-03-31T05:43:30;5.57;;;1.30;;
6300;SDS011;3183;51.010;6.898;2023-03-31T05:45:57;4.17;;;1.60;;
6300;SDS011;3183;51.010;6.898;2023-03-31T05:48:24;1.70;;;1.10;;
6300;SDS011;3183;51.010;6.898;2023-03-31T05:50:54;3.63;;;1.20;;
6300;SDS011;3183;51.010;6.898;2023-03-31T05:53:23;5.30;;;1.30;;
6300;SDS011;3183;51.010;6.898;2023-03-31T05:55:55;5.40;;;1.67;;
6300;SDS011;3183;51.010;6.898;2023-03-31T05:58:22;7.47;;;1.67;;
6300;SDS011;3183;51.010;6.898;2023-03-31T06:00:49;3.60;;;1.53;;
6300;SDS011;3183;51.010;6.898;2023-03-31T06:03:17;3.40;;;1.43;;
6300;SDS011;3183;51.010;6.898;2023-03-31T06:05:47;9.53;;;1.20;;
6300;SDS011;3183;51.010;6.898;2023-03-31T06:08:14;3.90;;;1.27;;
6300;SDS011;3183;51.010;6.898;2023-03-31T06:10:42;4.87;;;1.43;;
6300;SDS011;3183;51.010;6.898;2023-03-31T06:13:11;3.37;;;1.30;;
6300;SDS011;3183;51.010;6.898;2023-03-31T06:15:38;2.03;;;1.03;;
6300;SDS011;3183;51.010;6.898;2023-03-31T06:18:06;8.40;;;1.83;;
6300;SDS011;3183;51.010;6.898;2023-03-31T06:20:34;5.53;;;1.17;;
6300;SDS011;3183;51.010;6.898;2023-03-31T06:23:01;2.90;;;1.27;;
6300;SDS011;3183;51.010;6.898;2023-03-31T06:25:29;2.60;;;1.00;;
6300;SDS011;3183;51.010;6.898;2023-03-31T06:27:57;2.90;;;1.00;;
6300;SDS011;3183;51.010;6.898;2023-03-31T06:30:24;6.40;;;0.90;;
6300;SDS011;3183;51.010;6.898;2023-03-31T06:32:51;3.40;;;1.27;;
6300;SDS011;3183;51.010;6.898;2023-03-31T06:40:13;8.00;;;0.80;;
6300;SDS011;3183;51.010;6.898;2023-03-31T06:42:40;2.30;;;0.80;;
6300;SDS011;3183;51.010;6.898;2023-03-31T06:45:09;1.30;;;0.70;;
6300;SDS011;3183;51.010;6.898;2023-03-31T06:47:37;2.70;;;0.70;;
6300;SDS011;3183;51.010;6.898;2023-03-31T06:50:05;4.23;;;1.10;;
6300;SDS011;3183;51.010;6.898;2023-03-31T06:52:33;4.20;;;0.87;;
6300;SDS011;3183;51.010;6.898;2023-03-31T06:55:00;2.00;;;1.00;;
6300;SDS011;3183;51.010;6.898;2023-03-31T06:57:28;2.90;;;1.47;;
6300;SDS011;3183;51.010;6.898;2023-03-31T06:59:57;8.13;;;0.93;;
6300;SDS011;3183;51.010;6.898;2023-03-31T07:02:25;1.40;;;0.70;;
6300;SDS011;3183;51.010;6.898;2023-03-31T07:04:52;1.77;;;0.73;;
6300;SDS011;3183;51.010;6.898;2023-03-31T07:07:22;3.80;;;0.77;;
6300;SDS011;3183;51.010;6.898;2023-03-31T07:09:49;1.70;;;0.70;;
6300;SDS011;3183;51.010;6.898;2023-03-31T07:12:16;6.30;;;1.07;;
6300;SDS011;3183;51.010;6.898;2023-03-31T07:14:44;3.00;;;0.90;;
6300;SDS011;3183;51.010;6.898;2023-03-31T07:17:11;3.23;;;0.70;;
6300;SDS011;3183;51.010;6.898;2023-03-31T07:19:40;1.00;;;0.70;;
6300;SDS011;3183;51.010;6.898;2023-03-31T07:22:11;3.13;;;1.07;;
6300;SDS011;3183;51.010;6.898;2023-03-31T07:24:39;3.27;;;0.90;;
6300;SDS011;3183;51.010;6.898;2023-03-31T07:27:06;2.20;;;0.77;;
6300;SDS011;3183;51.010;6.898;2023-03-31T07:29:34;1.17;;;0.50;;
6300;SDS011;3183;51.010;6.898;2023-03-31T07:32:01;1.80;;;0.70;;
6300;SDS011;3183;51.010;6.898;2023-03-31T07:34:28;1.73;;;0.90;;
6300;SDS011;3183;51.010;6.898;2023-03-31T07:36:56;2.47;;;0.93;;
6300;SDS011;3183;51.010;6.898;2023-03-31T07:39:24;1.07;;;0.70;;
6300;SDS011;3183;51.010;6.898;2023-03-31T07:41:51;1.10;;;0.60;;
6300;SDS011;3183;51.010;6.898;2023-03-31T07:44:18;1.00;;;0.60;;
6300;SDS011;3183;51.010;6.898;2023-03-31T07:46:47;2.73;;;0.50;;
6300;SDS011;3183;51.010;6.898;2023-03-31T07:49:14;2.70;;;0.83;;
6300;SDS011;3183;51.010;6.898;2023-03-31T07:51:41;5.40;;;0.90;;
6300;SDS011;3183;51.010;6.898;2023-03-31T07:54:10;4.17;;;0.80;;
6300;SDS011;3183;51.010;6.898;2023-03-31T07:56:37;5.20;;;1.03;;
6300;SDS011;3183;51.010;6.898;2023-03-31T07:59:04;1.40;;;0.80;;
6300;SDS011;3183;51.010;6.898;2023-03-31T08:01:31;2.60;;;0.80;;
6300;SDS011;3183;51.010;6.898;2023-03-31T08:03:58;1.50;;;0.77;;
6300;SDS011;3183;51.010;6.898;2023-03-31T08:06:26;2.87;;;1.10;;
6300;SDS011;3183;51.010;6.898;2023-03-31T08:08:54;6.60;;;0.70;;
6300;SDS011;3183;51.010;6.898;2023-03-31T08:11:22;9.73;;;0.90;;
6300;SDS011;3183;51.010;6.898;2023-03-31T08:13:50;2.87;;;0.97;;
6300;SDS011;3183;51.010;6.898;2023-03-31T08:16:17;5.70;;;1.00;;
6300;SDS011;3183;51.010;6.898;2023-03-31T08:18:44;2.60;;;1.20;;
6300;SDS011;3183;51.010;6.898;2023-03-31T08:21:11;5.87;;;1.40;;
6300;SDS011;3183;51.010;6.898;2023-03-31T08:23:39;6.07;;;1.10;;
6300;SDS011;3183;51.010;6.898;2023-03-31T08:26:07;3.60;;;1.13;;
6300;SDS011;3183;51.010;6.898;2023-03-31T08:28:35;6.20;;;1.23;;
6300;SDS011;3183;51.010;6.898;2023-03-31T08:31:03;2.03;;;1.03;;
6300;SDS011;3183;51.010;6.898;2023-03-31T08:33:30;4.67;;;1.30;;
6300;SDS011;3183;51.010;6.898;2023-03-31T08:36:00;2.13;;;0.70;;
6300;SDS011;3183;51.010;6.898;2023-03-31T08:38:27;1.33;;;0.73;;
6300;SDS011;3183;51.010;6.898;2023-03-31T08:40:57;4.20;;;1.30;;
6300;SDS011;3183;51.010;6.898;2023-03-31T08:43:25;5.10;;;1.13;;
6300;SDS011;3183;51.010;6.898;2023-03-31T08:45:54;7.23;;;1.43;;
6300;SDS011;3183;51.010;6.898;2023-03-31T08:48:23;3.70;;;1.50;;
6300;SDS011;3183;51.010;6.898;2023-03-31T08:50:52;5.43;;;1.80;;
6300;SDS011;3183;51.010;6.898;2023-03-31T08:53:22;7.03;;;1.97;;
6300;SDS011;3183;51.010;6.898;2023-03-31T08:55:51;6.00;;;1.43;;
6300;SDS011;3183;51.010;6.898;2023-03-31T08:58:23;9.10;;;2.00;;
6300;SDS011;3183;51.010;6.898;2023-03-31T09:00:56;1.37;;;1.00;;
6300;SDS011;3183;51.010;6.898;2023-03-31T09:03:27;3.70;;;1.20;;
6300;SDS011;3183;51.010;6.898;2023-03-31T09:05:57;3.73;;;1.30;;
6300;SDS011;3183;51.010;6.898;2023-03-31T09:08:30;8.30;;;1.60;;
6300;SDS011;3183;51.010;6.898;2023-03-31T09:10:59;7.27;;;2.17;;
6300;SDS011;3183;51.010;6.898;2023-03-31T09:16:16;7.07;;;2.00;;
6300;SDS011;3183;51.010;6.898;2023-03-31T09:18:46;6.00;;;1.77;;
6300;SDS011;3183;51.010;6.898;2023-03-31T09:21:15;7.73;;;2.07;;
6300;SDS011;3183;51.010;6.898;2023-03-31T09:23:45;11.77;;;2.07;;
6300;SDS011;3183;51.010;6.898;2023-03-31T09:26:18;7.20;;;1.40;;
6300;SDS011;3183;51.010;6.898;2023-03-31T09:28:46;8.00;;;2.13;;
6300;SDS011;3183;51.010;6.898;2023-03-31T09:31:15;8.23;;;1.93;;
6300;SDS011;3183;51.010;6.898;2023-03-31T09:33:45;9.77;;;2.20;;
6300;SDS011;3183;51.010;6.898;2023-03-31T09:36:13;9.03;;;2.53;;
6300;SDS011;3183;51.010;6.898;2023-03-31T09:38:41;8.37;;;1.97;;
6300;SDS011;3183;51.010;6.898;2023-03-31T09:43:57;6.40;;;1.40;;
6300;SDS011;3183;51.010;6.898;2023-03-31T09:46:25;16.20;;;2.50;;
6300;SDS011;3183;51.010;6.898;2023-03-31T09:49:03;8.30;;;1.53;;
6300;SDS011;3183;51.010;6.898;2023-03-31T09:51:33;5.20;;;1.50;;
6300;SDS011;3183;51.010;6.898;2023-03-31T09:54:05;8.63;;;1.90;;
6300;SDS011;3183;51.010;6.898;2023-03-31T09:56:43;11.07;;;2.10;;
6300;SDS011;3183;51.010;6.898;2023-03-31T09:59:13;14.87;;;1.90;;
6300;SDS011;3183;51.010;6.898;2023-03-31T10:01:41;12.53;;;2.00;;
6300;SDS011;3183;51.010;6.898;2023-03-31T10:04:10;5.27;;;1.70;;
6300;SDS011;3183;51.010;6.898;2023-03-31T10:06:42;10.43;;;2.17;;
6300;SDS011;3183;51.010;6.898;2023-03-31T10:09:09;9.50;;;2.13;;
6300;SDS011;3183;51.010;6.898;2023-03-31T10:11:37;12.00;;;2.40;;
6300;SDS011;3183;51.010;6.898;2023-03-31T10:14:05;5.20;;;1.53;;
6300;SDS011;3183;51.010;6.898;2023-03-31T10:16:42;9.67;;;2.20;;
6300;SDS011;3183;51.010;6.898;2023-03-31T10:19:13;7.13;;;2.10;;
6300;SDS011;3183;51.010;6.898;2023-03-31T10:21:45;9.10;;;2.00;;
6300;SDS011;3183;51.010;6.898;2023-03-31T10:24:16;15.97;;;2.93;;
6300;SDS011;3183;51.010;6.898;2023-03-31T10:26:45;6.63;;;2.17;;
6300;SDS011;3183;51.010;6.898;2023-03-31T10:29:15;9.63;;;2.00;;
6300;SDS011;3183;51.010;6.898;2023-03-31T10:31:46;8.07;;;2.27;;
6300;SDS011;3183;51.010;6.898;2023-03-31T10:34:14;7.80;;;2.00;;
6300;SDS011;3183;51.010;6.898;2023-03-31T10:36:43;8.80;;;2.23;;
6300;SDS011;3183;51.010;6.898;2023-03-31T10:39:12;12.10;;;2.10;;
6300;SDS011;3183;51.010;6.898;2023-03-31T10:41:41;9.27;;;2.63;;
6300;SDS011;3183;51.010;6.898;2023-03-31T10:44:28;13.50;;;2.40;;
6300;SDS011;3183;51.010;6.898;2023-03-31T10:46:56;9.50;;;1.93;;
6300;SDS011;3183;51.010;6.898;2023-03-31T10:49:33;7.17;;;1.83;;
6300;SDS011;3183;51.010;6.898;2023-03-31T10:52:12;8.90;;;1.80;;
6300;SDS011;3183;51.010;6.898;2023-03-31T10:54:45;11.13;;;1.67;;
6300;SDS011;3183;51.010;6.898;2023-03-31T10:57:12;10.93;;;1.93;;
6300;SDS011;3183;51.010;6.898;2023-03-31T10:59:42;4.17;;;1.67;;
6300;SDS011;3183;51.010;6.898;2023-03-31T11:02:18;5.80;;;1.40;;
6300;SDS011;3183;51.010;6.898;2023-03-31T11:04:50;11.23;;;2.27;;
6300;SDS011;3183;51.010;6.898;2023-03-31T11:07:27;7.90;;;2.20;;
6300;SDS011;3183;51.010;6.898;2023-03-31T11:10:01;8.40;;;1.50;;
6300;SDS011;3183;51.010;6.898;2023-03-31T11:12:30;6.27;;;1.50;;
6300;SDS011;3183;51.010;6.898;2023-03-31T11:15:03;3.73;;;0.83;;
6300;SDS011;3183;51.010;6.898;2023-03-31T11:17:48;3.33;;;0.80;;
6300;SDS011;3183;51.010;6.898;2023-03-31T11:20:20;2.47;;;0.77;;
6300;SDS011;3183;51.010;6.898;2023-03-31T11:22:51;2.67;;;0.70;;
6300;SDS011;3183;51.010;6.898;2023-03-31T11:25:22;7.80;;;0.70;;
6300;SDS011;3183;51.010;6.898;2023-03-31T11:27:59;3.63;;;0.73;;
6300;SDS011;3183;51.010;6.898;2023-03-31T11:30:29;3.30;;;1.10;;
6300;SDS011;3183;51.010;6.898;2023-03-31T11:33:01;9.87;;;1.83;;
6300;SDS011;3183;51.010;6.898;2023-03-31T11:35:41;2.57;;;1.00;;
6300;SDS011;3183;51.010;6.898;2023-03-31T11:38:18;4.53;;;1.10;;
6300;SDS011;3183;51.010;6.898;2023-03-31T11:40:48;7.80;;;0.80;;
6300;SDS011;3183;51.010;6.898;2023-03-31T11:43:19;2.40;;;0.93;;
6300;SDS011;3183;51.010;6.898;2023-03-31T11:45:51;4.87;;;0.90;;
6300;SDS011;3183;51.010;6.898;2023-03-31T11:48:21;4.00;;;1.07;;
6300;SDS011;3183;51.010;6.898;2023-03-31T11:50:52;4.57;;;1.17;;
6300;SDS011;3183;51.010;6.898;2023-03-31T11:53:22;3.50;;;1.20;;
6300;SDS011;3183;51.010;6.898;2023-03-31T11:55:52;8.70;;;1.13;;
6300;SDS011;3183;51.010;6.898;2023-03-31T11:58:21;9.33;;;1.90;;
6300;SDS011;3183;51.010;6.898;2023-03-31T12:00:50;10.00;;;1.50;;
6300;SDS011;3183;51.010;6.898;2023-03-31T12:03:18;9.37;;;2.10;;
6300;SDS011;3183;51.010;6.898;2023-03-31T12:05:48;5.63;;;1.40;;
6300;SDS011;3183;51.010;6.898;2023-03-31T12:08:20;12.37;;;1.93;;
6300;SDS011;3183;51.010;6.898;2023-03-31T12:10:49;6.73;;;1.87;;
6300;SDS011;3183;51.010;6.898;2023-03-31T12:16:04;3.03;;;1.30;;
6300;SDS011;3183;51.010;6.898;2023-03-31T12:18:33;9.57;;;1.80;;
6300;SDS011;3183;51.010;6.898;2023-03-31T12:21:01;9.43;;;1.67;;
6300;SDS011;3183;51.010;6.898;2023-03-31T12:23:32;8.90;;;1.87;;
6300;SDS011;3183;51.010;6.898;2023-03-31T12:26:01;6.80;;;1.60;;
6300;SDS011;3183;51.010;6.898;2023-03-31T12:28:28;10.60;;;1.90;;
6300;SDS011;3183;51.010;6.898;2023-03-31T12:30:56;11.03;;;1.97;;
6300;SDS011;3183;51.010;6.898;2023-03-31T12:33:26;8.90;;;2.10;;
6300;SDS011;3183;51.010;6.898;2023-03-31T12:36:11;17.10;;;2.80;;
6300;SDS011;3183;51.010;6.898;2023-03-31T12:38:44;7.33;;;1.70;;
6300;SDS011;3183;51.010;6.898;2023-03-31T12:41:15;7.00;;;1.30;;
6300;SDS011;3183;51.010;6.898;2023-03-31T12:44:01;12.07;;;1.70;;
6300;SDS011;3183;51.010;6.898;2023-03-31T12:46:44;14.90;;;2.90;;
6300;SDS011;3183;51.010;6.898;2023-03-31T12:49:26;13.43;;;2.70;;
6300;SDS011;3183;51.010;6.898;2023-03-31T12:52:00;12.83;;;2.23;;
6300;SDS011;3183;51.010;6.898;2023-03-31T12:57:18;10.87;;;2.07;;
6300;SDS011;3183;51.010;6.898;2023-03-31T12:59:46;8.87;;;2.30;;
6300;SDS011;3183;51.010;6.898;2023-03-31T13:02:31;10.70;;;2.43;;
6300;SDS011;3183;51.010;6.898;2023-03-31T13:04:59;6.57;;;2.00;;
6300;SDS011;3183;51.010;6.898;2023-03-31T13:07:47;11.33;;;2.40;;
6300;SDS011;3183;51.010;6.898;2023-03-31T13:10:24;8.60;;;1.57;;
6300;SDS011;3183;51.010;6.898;2023-03-31T13:12:55;5.80;;;1.57;;
6300;SDS011;3183;51.010;6.898;2023-03-31T13:15:24;3.77;;;1.30;;
6300;SDS011;3183;51.010;6.898;2023-03-31T13:17:57;7.20;;;1.30;;
6300;SDS011;3183;51.010;6.898;2023-03-31T13:20:27;6.60;;;1.40;;
6300;SDS011;3183;51.010;6.898;2023-03-31T13:23:01;6.10;;;1.40;;
6300;SDS011;3183;51.010;6.898;2023-03-31T13:25:33;6.73;;;1.27;;
6300;SDS011;3183;51.010;6.898;2023-03-31T13:28:13;2.73;;;1.27;;
6300;SDS011;3183;51.010;6.898;2023-03-31T13:30:47;2.37;;;1.13;;
6300;SDS011;3183;51.010;6.898;2023-03-31T13:33:15;4.90;;;1.70;;
6300;SDS011;3183;51.010;6.898;2023-03-31T13:35:45;7.50;;;1.50;;
6300;SDS011;3183;51.010;6.898;2023-03-31T13:38:17;9.47;;;1.50;;
6300;SDS011;3183;51.010;6.898;2023-03-31T13:40:51;6.83;;;1.03;;
6300;SDS011;3183;51.010;6.898;2023-03-31T13:43:47;8.90;;;1.23;;
6300;SDS011;3183;51.010;6.898;2023-03-31T13:46:30;10.63;;;1.50;;
6300;SDS011;3183;51.010;6.898;2023-03-31T13:49:04;7.60;;;1.23;;
6300;SDS011;3183;51.010;6.898;2023-03-31T13:51:37;3.23;;;1.10;;
6300;SDS011;3183;51.010;6.898;2023-03-31T13:54:29;8.13;;;1.60;;
6300;SDS011;3183;51.010;6.898;2023-03-31T13:57:11;13.70;;;2.20;;
6300;SDS011;3183;51.010;6.898;2023-03-31T13:59:54;6.97;;;1.40;;
6300;SDS011;3183;51.010;6.898;2023-03-31T14:02:30;5.70;;;1.37;;
6300;SDS011;3183;51.010;6.898;2023-03-31T14:07:49;3.77;;;1.10;;
6300;SDS011;3183;51.010;6.898;2023-03-31T14:10:25;8.00;;;1.33;;
6300;SDS011;3183;51.010;6.898;2023-03-31T14:13:02;6.57;;;2.00;;
6300;SDS011;3183;51.010;6.898;2023-03-31T14:15:30;2.73;;;1.33;;
6300;SDS011;3183;51.010;6.898;2023-03-31T14:17:57;4.10;;;1.30;;
6300;SDS011;3183;51.010;6.898;2023-03-31T14:20:25;2.73;;;1.07;;
6300;SDS011;3183;51.010;6.898;2023-03-31T14:22:56;4.40;;;0.87;;
6300;SDS011;3183;51.010;6.898;2023-03-31T14:25:34;2.10;;;0.83;;
6300;SDS011;3183;51.010;6.898;2023-03-31T14:28:04;2.93;;;1.03;;
6300;SDS011;3183;51.010;6.898;2023-03-31T14:30:36;3.13;;;0.83;;
6300;SDS011;3183;51.010;6.898;2023-03-31T14:33:10;2.97;;;0.97;;
6300;SDS011;3183;51.010;6.898;2023-03-31T14:35:39;2.27;;;1.03;;
6300;SDS011;3183;51.010;6.898;2023-03-31T14:38:09;1.63;;;0.70;;
6300;SDS011;3183;51.010;6.898;2023-03-31T14:40:43;1.60;;;0.90;;
6300;SDS011;3183;51.010;6.898;2023-03-31T14:43:15;3.23;;;1.43;;
6300;SDS011;3183;51.010;6.898;2023-03-31T14:45:43;1.37;;;0.60;;
6300;SDS011;3183;51.010;6.898;2023-03-31T14:48:11;7.40;;;1.20;;
6300;SDS011;3183;51.010;6.898;2023-03-31T14:50:40;4.30;;;1.00;;
6300;SDS011;3183;51.010;6.898;2023-03-31T14:53:14;4.37;;;1.37;;
6300;SDS011;3183;51.010;6.898;2023-03-31T14:55:43;3.70;;;0.87;;
6300;SDS011;3183;51.010;6.898;2023-03-31T14:58:12;5.50;;;0.77;;
6300;SDS011;3183;51.010;6.898;2023-03-31T15:00:40;5.97;;;1.40;;
6300;SDS011;3183;51.010;6.898;2023-03-31T15:03:08;2.27;;;1.00;;
6300;SDS011;3183;51.010;6.898;2023-03-31T15:05:48;9.00;;;1.37;;
6300;SDS011;3183;51.010;6.898;2023-03-31T15:08:17;2.80;;;0.93;;
6300;SDS011;3183;51.010;6.898;2023-03-31T15:10:48;4.10;;;0.93;;
6300;SDS011;3183;51.010;6.898;2023-03-31T15:13:18;7.10;;;1.20;;
6300;SDS011;3183;51.010;6.898;2023-03-31T15:15:46;7.40;;;1.33;;
6300;SDS011;3183;51.010;6.898;2023-03-31T15:18:13;4.40;;;1.20;;
6300;SDS011;3183;51.010;6.898;2023-03-31T15:20:41;8.20;;;1.37;;
6300;SDS011;3183;51.010;6.898;2023-03-31T15:23:18;7.80;;;1.40;;
6300;SDS011;3183;51.010;6.898;2023-03-31T15:25:50;6.47;;;1.20;;
6300;SDS011;3183;51.010;6.898;2023-03-31T15:28:17;3.23;;;1.47;;
6300;SDS011;3183;51.010;6.898;2023-03-31T15:30:46;6.67;;;1.73;;
6300;SDS011;3183;51.010;6.898;2023-03-31T15:33:16;7.17;;;2.23;;
6300;SDS011;3183;51.010;6.898;2023-03-31T15:35:44;5.13;;;1.57;;
6300;SDS011;3183;51.010;6.898;2023-03-31T15:38:12;12.90;;;1.97;;
6300;SDS011;3183;51.010;6.898;2023-03-31T15:40:42;8.13;;;1.67;;
6300;SDS011;3183;51.010;6.898;2023-03-31T15:43:13;7.00;;;1.10;;
6300;SDS011;3183;51.010;6.898;2023-03-31T15:45:48;9.13;;;1.97;;
6300;SDS011;3183;51.010;6.898;2023-03-31T15:48:18;7.27;;;2.60;;
6300;SDS011;3183;51.010;6.898;2023-03-31T15:50:45;7.80;;;1.80;;
6300;SDS011;3183;51.010;6.898;2023-03-31T15:53:20;10.37;;;2.60;;
6300;SDS011;3183;51.010;6.898;2023-03-31T15:55:48;9.53;;;2.90;;
6300;SDS011;3183;51.010;6.898;2023-03-31T15:58:23;5.00;;;2.27;;
6300;SDS011;3183;51.010;6.898;2023-03-31T16:00:52;8.00;;;2.37;;